createdAt,value
2023-02-09T17:58:19.487Z,2.64
2023-02-09T18:00:47.904Z,3.15
2023-02-09T18:03:17.731Z,3.53
2023-02-09T18:05:46.460Z,3.83
2023-02-09T18:08:14.678Z,4.08
2023-02-09T18:10:42.386Z,4.27
2023-02-09T18:13:10.725Z,4.41
2023-02-09T18:15:40.507Z,4.57
2023-02-09T18:18:08.217Z,4.69
2023-02-09T18:20:36.084Z,4.78
2023-02-09T18:23:04.728Z,4.86
2023-02-09T18:25:34.078Z,4.91
2023-02-09T18:28:02.111Z,4.94
2023-02-09T18:30:31.980Z,5.01
2023-02-09T18:33:01.799Z,5.06
2023-02-09T18:35:33.112Z,5.08
2023-02-09T18:38:01.678Z,5.11
2023-02-09T18:40:31.981Z,5.13
2023-02-09T18:42:59.896Z,5.15
2023-02-09T18:45:28.018Z,5.16
2023-02-09T18:47:56.010Z,5.18
2023-02-09T18:50:27.141Z,5.22
2023-02-09T18:52:56.177Z,5.25
2023-02-09T18:55:25.584Z,5.31
2023-02-09T18:57:53.753Z,5.34
2023-02-09T19:00:22.141Z,5.36
2023-02-09T19:02:50.500Z,5.36
2023-02-09T19:05:19.471Z,5.40
2023-02-09T19:07:48.567Z,5.43
2023-02-09T19:10:18.481Z,5.42
2023-02-09T19:12:46.292Z,5.43
2023-02-09T19:15:14.738Z,5.45
2023-02-09T19:17:42.933Z,5.47
2023-02-09T19:20:14.066Z,5.45
2023-02-09T19:22:41.815Z,5.51
2023-02-09T19:25:10.918Z,5.50
2023-02-09T19:27:38.843Z,5.51
2023-02-09T19:30:07.157Z,5.51
2023-02-09T19:32:34.913Z,5.53
2023-02-09T19:35:04.422Z,5.53
2023-02-09T19:37:32.110Z,5.55
2023-02-09T19:40:07.179Z,5.57
2023-02-09T19:42:36.308Z,5.58
2023-02-09T19:45:04.351Z,5.58
2023-02-09T19:47:32.404Z,5.58
2023-02-09T19:50:00.126Z,5.58
2023-02-09T19:52:28.698Z,5.58
2023-02-09T19:54:57.903Z,5.61
2023-02-09T19:57:26.038Z,5.61
2023-02-09T19:59:55.371Z,5.61
2023-02-09T20:02:23.066Z,5.64
2023-02-09T20:04:50.845Z,5.64
2023-02-09T20:07:18.941Z,5.65
2023-02-09T20:09:46.943Z,5.66
2023-02-09T20:12:14.893Z,5.67
2023-02-09T20:14:42.547Z,5.68
2023-02-09T20:17:11.757Z,5.69
2023-02-09T20:19:39.906Z,5.69
2023-02-09T20:22:07.575Z,5.69
2023-02-09T20:24:35.448Z,5.66
2023-02-09T20:27:03.285Z,5.68
2023-02-09T20:29:31.189Z,5.69
2023-02-09T20:31:58.837Z,5.70
2023-02-09T20:34:28.489Z,5.70
2023-02-09T20:36:57.391Z,5.67
2023-02-09T20:39:25.015Z,5.66
2023-02-09T20:42:11.522Z,5.67
2023-02-09T20:44:56.906Z,5.68
2023-02-09T20:47:26.017Z,5.70
2023-02-09T20:49:57.737Z,5.67
2023-02-09T20:52:25.469Z,5.70
2023-02-09T20:54:53.261Z,5.70
2023-02-09T20:57:20.927Z,5.70
2023-02-09T20:59:50.161Z,5.70
2023-02-09T21:02:18.116Z,5.71
2023-02-09T21:04:45.842Z,5.71
2023-02-09T21:07:15.335Z,5.73
2023-02-09T21:09:43.211Z,5.74
2023-02-09T21:12:13.836Z,5.76
2023-02-09T21:14:45.041Z,5.77
2023-02-09T21:17:13.011Z,5.78
2023-02-09T21:19:41.072Z,5.78
2023-02-09T21:22:08.831Z,5.79
2023-02-09T21:24:39.182Z,5.78
2023-02-09T21:27:07.348Z,5.77
2023-02-09T21:29:35.514Z,5.72
2023-02-09T21:32:05.336Z,5.69
2023-02-09T21:34:33.133Z,5.67
2023-02-09T21:37:00.860Z,5.64
2023-02-09T21:39:28.598Z,5.61
2023-02-09T21:42:15.260Z,5.58
2023-02-09T21:44:43.211Z,5.56
2023-02-09T21:47:11.254Z,5.54
2023-02-09T21:49:38.965Z,5.50
2023-02-09T21:52:06.616Z,5.48
2023-02-09T21:54:34.405Z,5.44
2023-02-09T21:57:03.851Z,5.42
2023-02-09T21:59:31.643Z,5.40
2023-02-09T22:01:59.306Z,5.38
2023-02-09T22:04:27.171Z,5.36
2023-02-09T22:06:54.866Z,5.34
2023-02-09T22:09:23.972Z,5.30
2023-02-09T22:11:51.707Z,5.29
2023-02-09T22:14:20.790Z,5.27
2023-02-09T22:16:48.422Z,5.25
2023-02-09T22:19:16.180Z,5.22
2023-02-09T22:21:43.916Z,5.19
2023-02-09T22:24:14.163Z,5.17
2023-02-09T22:26:41.908Z,5.16
2023-02-09T22:29:10.159Z,5.14
2023-02-09T22:31:39.189Z,5.10
2023-02-09T22:34:07.320Z,5.11
2023-02-09T22:36:35.780Z,5.09
2023-02-09T22:39:04.044Z,5.05
2023-02-09T22:41:31.969Z,5.03
2023-02-09T22:44:01.207Z,5.00
2023-02-09T22:46:31.274Z,4.97
2023-02-09T22:49:01.850Z,4.98
2023-02-09T22:51:31.613Z,4.94
2023-02-09T22:54:00.119Z,4.93
2023-02-09T22:56:29.151Z,4.91
2023-02-09T22:58:58.009Z,4.91
2023-02-09T23:01:26.056Z,4.89
2023-02-09T23:03:54.059Z,4.86
2023-02-09T23:06:24.591Z,4.83
2023-02-09T23:08:53.334Z,4.81
2023-02-09T23:11:21.249Z,4.78
2023-02-09T23:13:52.828Z,4.79
2023-02-09T23:16:24.730Z,4.77
2023-02-09T23:18:53.595Z,4.74
2023-02-09T23:21:24.111Z,4.73
2023-02-09T23:23:52.090Z,4.72
2023-02-09T23:26:20.911Z,4.70
2023-02-09T23:28:49.120Z,4.68
2023-02-09T23:31:18.505Z,4.68
2023-02-09T23:33:46.389Z,4.66
2023-02-09T23:36:16.430Z,4.64
2023-02-09T23:38:46.538Z,4.61
2023-02-09T23:41:16.236Z,4.58
2023-02-09T23:43:44.389Z,4.60
2023-02-09T23:46:14.154Z,4.57
2023-02-09T23:48:41.907Z,4.55
2023-02-09T23:51:11.897Z,4.49
2023-02-09T23:53:39.771Z,4.50
2023-02-09T23:56:09.080Z,4.49
2023-02-09T23:58:38.737Z,4.44
